createdAt,value
2022-08-16T00:02:12.808Z,21.58
2022-08-16T00:04:40.450Z,23.40
2022-08-16T00:07:07.550Z,26.15
2022-08-16T00:09:36.577Z,22.35
2022-08-16T00:12:05.393Z,21.83
2022-08-16T00:14:34.453Z,27.20
2022-08-16T00:17:18.329Z,28.50
2022-08-16T00:19:49.763Z,23.42
2022-08-16T00:22:24.912Z,19.33
2022-08-16T00:24:54.866Z,25.27
2022-08-16T00:27:22.090Z,25.40
2022-08-16T00:30:00.630Z,21.70
2022-08-16T00:32:36.924Z,27.65
2022-08-16T00:35:13.301Z,29.80
2022-08-16T00:37:57.567Z,27.42
2022-08-16T00:40:36.626Z,25.27
2022-08-16T00:43:19.104Z,29.25
2022-08-16T00:45:58.350Z,23.17
2022-08-16T00:48:30.937Z,28.30
2022-08-16T00:50:59.813Z,28.98
2022-08-16T00:53:26.888Z,26.90
2022-08-16T00:56:05.281Z,33.75
2022-08-16T00:58:35.337Z,33.85
2022-08-16T01:01:03.229Z,36.20
2022-08-16T01:03:41.695Z,38.85
2022-08-16T01:06:40.650Z,26.02
2022-08-16T01:09:00.085Z,33.58
2022-08-16T01:11:29.678Z,33.20
2022-08-16T01:14:02.256Z,38.08
2022-08-16T01:16:34.297Z,27.55
2022-08-16T01:19:07.407Z,27.35
2022-08-16T01:21:44.216Z,27.88
2022-08-16T01:24:51.775Z,26.58
2022-08-16T01:27:15.135Z,27.67
2022-08-16T01:32:33.708Z,30.48
2022-08-16T01:35:08.420Z,36.67
2022-08-16T01:37:53.949Z,28.88
2022-08-16T01:40:25.588Z,30.60
2022-08-16T01:42:58.197Z,35.88
2022-08-16T01:45:39.562Z,32.92
2022-08-16T01:48:20.103Z,41.58
2022-08-16T01:51:08.927Z,41.03
2022-08-16T01:53:40.741Z,35.88
2022-08-16T01:56:22.080Z,31.88
2022-08-16T01:58:54.868Z,30.80
2022-08-16T02:01:26.027Z,34.17
2022-08-16T02:03:53.460Z,29.10
2022-08-16T02:06:34.252Z,36.60
2022-08-16T02:09:05.133Z,29.38
2022-08-16T02:11:47.584Z,35.00
2022-08-16T02:14:21.569Z,39.33
2022-08-16T02:16:48.859Z,34.58
2022-08-16T02:19:18.597Z,39.83
2022-08-16T02:22:09.170Z,33.65
2022-08-16T02:24:42.367Z,36.08
2022-08-16T02:27:15.390Z,44.05
2022-08-16T02:29:49.440Z,33.13
2022-08-16T02:32:50.007Z,37.08
2022-08-16T02:35:18.768Z,32.33
2022-08-16T02:37:52.540Z,30.48
2022-08-16T02:40:22.438Z,36.63
2022-08-16T02:42:52.030Z,32.25
2022-08-16T02:45:20.676Z,32.38
2022-08-16T02:48:00.174Z,34.13
2022-08-16T02:50:55.159Z,30.17
2022-08-16T02:53:26.421Z,36.58
2022-08-16T02:55:54.105Z,31.67
2022-08-16T02:58:25.822Z,40.10
2022-08-16T03:00:56.001Z,43.13
2022-08-16T03:03:23.542Z,34.47
2022-08-16T03:05:52.598Z,36.50
2022-08-16T03:08:51.238Z,41.22
2022-08-16T03:11:16.629Z,32.83
2022-08-16T03:13:48.143Z,41.97
2022-08-16T03:16:37.792Z,36.65
2022-08-16T03:19:07.641Z,38.40
2022-08-16T03:21:37.981Z,28.58
2022-08-16T03:24:29.038Z,32.58
2022-08-16T03:26:53.633Z,30.10
2022-08-16T03:29:30.163Z,29.58
2022-08-16T03:31:59.217Z,41.00
2022-08-16T03:34:26.600Z,34.65
2022-08-16T03:36:53.904Z,34.65
2022-08-16T03:39:20.999Z,33.28
2022-08-16T03:41:50.313Z,30.77
2022-08-16T03:44:43.466Z,41.58
2022-08-16T03:47:10.287Z,32.53
2022-08-16T03:49:37.620Z,31.92
2022-08-16T03:52:06.028Z,30.27
2022-08-16T03:54:32.902Z,38.88
2022-08-16T03:57:02.953Z,41.72
2022-08-16T03:59:32.436Z,34.97
2022-08-16T04:02:01.163Z,36.60
2022-08-16T04:04:33.414Z,29.50
2022-08-16T04:07:02.749Z,30.30
2022-08-16T04:09:35.605Z,29.77
2022-08-16T04:12:03.393Z,31.65
2022-08-16T04:14:38.169Z,35.97
2022-08-16T04:17:15.634Z,32.75
2022-08-16T04:19:46.901Z,33.08
2022-08-16T04:22:17.197Z,33.47
2022-08-16T04:24:55.102Z,32.03
2022-08-16T04:27:24.453Z,30.48
2022-08-16T04:29:52.364Z,35.22
2022-08-16T04:32:19.769Z,35.38
2022-08-16T04:34:50.785Z,29.13
2022-08-16T04:37:18.591Z,36.35
2022-08-16T04:39:57.404Z,29.42
2022-08-16T04:42:25.871Z,34.50
2022-08-16T04:44:56.029Z,31.33
2022-08-16T04:47:31.501Z,31.83
2022-08-16T04:50:01.464Z,40.45
2022-08-16T04:52:33.990Z,36.83
2022-08-16T04:55:07.938Z,37.22
2022-08-16T04:57:35.814Z,35.80
2022-08-16T05:00:32.657Z,38.78
2022-08-16T05:02:55.638Z,34.75
2022-08-16T05:05:24.633Z,28.08
2022-08-16T05:07:58.430Z,28.27
2022-08-16T05:10:27.958Z,34.88
2022-08-16T05:12:55.051Z,36.13
2022-08-16T05:15:23.641Z,28.20
2022-08-16T05:17:58.674Z,31.33
2022-08-16T05:20:39.403Z,31.02
2022-08-16T05:23:15.030Z,32.50
2022-08-16T05:25:47.852Z,33.25
2022-08-16T05:30:43.215Z,29.67
2022-08-16T05:33:16.937Z,30.73
2022-08-16T05:35:46.938Z,33.45
2022-08-16T05:38:40.041Z,30.35
2022-08-16T05:41:07.503Z,24.73
2022-08-16T05:43:43.796Z,41.65
2022-08-16T05:46:28.966Z,31.92
2022-08-16T05:49:03.137Z,31.15
2022-08-16T05:51:37.653Z,29.48
2022-08-16T05:54:06.697Z,26.27
2022-08-16T05:56:35.930Z,26.60
2022-08-16T05:59:06.119Z,25.40
2022-08-16T06:01:38.237Z,30.83
2022-08-16T06:04:13.104Z,21.08
2022-08-16T06:06:55.835Z,18.83
2022-08-16T06:09:23.555Z,23.95
2022-08-16T06:11:51.081Z,27.45
2022-08-16T06:14:18.571Z,26.10
2022-08-16T06:16:50.996Z,23.88
2022-08-16T06:19:18.027Z,24.90
2022-08-16T06:21:45.367Z,33.22
2022-08-16T06:24:53.283Z,36.30
2022-08-16T06:27:10.237Z,25.20
2022-08-16T06:29:37.083Z,28.52
2022-08-16T06:32:04.926Z,27.88
2022-08-16T06:34:57.292Z,26.60
2022-08-16T06:37:21.338Z,31.98
2022-08-16T06:39:50.447Z,30.48
2022-08-16T06:42:18.284Z,25.50
2022-08-16T06:44:46.886Z,25.55
2022-08-16T06:47:17.024Z,35.22
2022-08-16T06:49:52.908Z,32.05
2022-08-16T06:52:57.649Z,25.42
2022-08-16T06:55:12.806Z,22.13
2022-08-16T06:57:40.812Z,26.25
2022-08-16T07:00:24.092Z,30.75
2022-08-16T07:02:53.812Z,24.50
2022-08-16T07:05:27.394Z,27.00
2022-08-16T07:08:11.422Z,29.40
2022-08-16T07:10:41.551Z,25.58
2022-08-16T07:13:11.601Z,24.38
2022-08-16T07:15:50.751Z,30.23
2022-08-16T07:18:24.373Z,27.60
2022-08-16T07:20:53.866Z,35.50
2022-08-16T07:23:21.409Z,20.88
2022-08-16T07:26:29.445Z,24.58
2022-08-16T07:29:09.623Z,27.83
2022-08-16T07:31:37.525Z,19.65
2022-08-16T08:50:50.394Z,20.77
2022-08-16T08:53:17.899Z,26.45
2022-08-16T08:55:45.146Z,17.13
2022-08-16T08:58:13.189Z,16.00
2022-08-16T09:00:51.444Z,28.00
2022-08-16T09:26:59.432Z,9.40
2022-08-16T09:29:45.348Z,24.90
2022-08-16T09:32:13.209Z,14.43
2022-08-16T09:41:53.546Z,20.40
2022-08-16T09:45:18.447Z,16.25
2022-08-16T09:56:58.605Z,18.15
2022-08-16T09:59:45.803Z,9.43
2022-08-16T10:02:26.846Z,10.40
2022-08-16T10:04:55.466Z,10.55
2022-08-16T10:07:23.080Z,15.73
2022-08-16T10:09:55.003Z,12.80
2022-08-16T10:15:15.582Z,23.08
2022-08-16T10:17:45.764Z,13.70
2022-08-16T10:20:31.393Z,10.13
2022-08-16T10:23:05.505Z,15.07
2022-08-16T10:27:03.678Z,13.77
2022-08-16T10:28:42.245Z,12.68
2022-08-16T10:31:16.752Z,11.40
2022-08-16T10:34:30.735Z,9.40
2022-08-16T10:37:00.132Z,7.00
2022-08-16T10:39:27.416Z,10.07
2022-08-16T10:42:08.385Z,8.10
2022-08-16T10:44:35.384Z,8.43
2022-08-16T10:47:04.234Z,8.30
2022-08-16T10:50:26.652Z,7.75
2022-08-16T10:52:58.684Z,10.45
2022-08-16T10:55:45.403Z,8.00
2022-08-16T10:58:16.906Z,8.27
2022-08-16T11:00:46.877Z,8.13
2022-08-16T11:06:05.909Z,5.40
2022-08-16T11:08:39.626Z,7.68
2022-08-16T11:11:19.675Z,9.43
2022-08-16T11:14:10.830Z,9.95
2022-08-16T11:19:33.618Z,11.68
2022-08-16T11:22:38.913Z,11.68
2022-08-16T11:26:03.897Z,15.18
2022-08-16T11:28:04.961Z,54.60
2022-08-16T11:30:39.203Z,8.57
2022-08-16T11:33:06.867Z,9.55
2022-08-16T11:38:51.457Z,14.90
2022-08-16T11:41:11.296Z,13.20
2022-08-16T11:43:41.672Z,13.90
2022-08-16T11:46:44.339Z,14.23
2022-08-16T11:49:11.212Z,7.45
2022-08-16T11:51:44.125Z,4.95
2022-08-16T11:54:20.205Z,12.18
2022-08-16T11:56:52.901Z,12.15
2022-08-16T12:12:14.904Z,11.13
2022-08-16T12:14:45.822Z,10.15
2022-08-16T12:17:14.337Z,9.48
2022-08-16T12:19:41.556Z,14.15
2022-08-16T12:22:19.188Z,11.45
2022-08-16T12:24:50.915Z,10.10
2022-08-16T12:27:23.199Z,11.75
2022-08-16T12:29:51.665Z,20.63
2022-08-16T12:32:35.977Z,7.10
2022-08-16T12:35:09.551Z,12.90
2022-08-16T12:37:36.980Z,9.85
2022-08-16T12:40:21.249Z,7.68
2022-08-16T12:43:00.682Z,9.40
2022-08-16T12:45:31.043Z,5.65
2022-08-16T12:48:33.585Z,7.60
2022-08-16T12:51:13.553Z,5.88
2022-08-16T12:53:48.038Z,6.95
2022-08-16T12:56:18.897Z,6.88
2022-08-16T12:58:51.529Z,9.30
2022-08-16T13:31:27.296Z,26.00
2022-08-16T13:33:58.784Z,6.35
2022-08-16T13:36:48.779Z,7.50
2022-08-16T13:39:17.235Z,7.13
2022-08-16T13:41:44.699Z,11.95
2022-08-16T13:44:21.908Z,8.27
2022-08-16T13:47:12.824Z,6.65
2022-08-16T13:49:41.371Z,8.02
2022-08-16T13:52:13.300Z,11.75
2022-08-16T13:54:40.530Z,12.63
2022-08-16T13:57:07.618Z,6.75
2022-08-16T13:59:38.786Z,9.35
2022-08-16T14:02:08.841Z,9.98
2022-08-16T14:04:41.101Z,12.40
2022-08-16T14:07:12.671Z,8.25
2022-08-16T14:09:47.982Z,8.05
2022-08-16T14:12:21.160Z,10.13
2022-08-16T14:14:48.982Z,10.13
2022-08-16T14:17:21.451Z,6.63
2022-08-16T14:19:50.546Z,7.32
2022-08-16T14:22:30.671Z,7.68
2022-08-16T14:24:59.844Z,7.55
2022-08-16T14:27:28.967Z,11.13
2022-08-16T14:30:01.180Z,20.67
2022-08-16T14:32:36.773Z,10.47
2022-08-16T14:35:11.529Z,10.07
2022-08-16T14:37:43.114Z,10.48
2022-08-16T14:40:20.380Z,11.98
2022-08-16T14:42:48.870Z,16.88
2022-08-16T14:45:20.628Z,20.48
2022-08-16T14:47:50.846Z,27.80
2022-08-16T14:50:21.344Z,20.92
2022-08-16T14:52:56.417Z,20.42
2022-08-16T14:55:26.035Z,15.10
2022-08-16T14:57:54.468Z,27.85
2022-08-16T15:00:32.708Z,15.88
2022-08-16T15:03:04.623Z,14.95
2022-08-16T15:05:32.546Z,16.63
2022-08-16T15:07:59.675Z,20.58
2022-08-16T15:10:29.490Z,20.00
2022-08-16T15:13:01.103Z,20.63
2022-08-16T15:15:30.176Z,25.17
2022-08-16T15:17:57.589Z,22.15
2022-08-16T15:20:29.509Z,19.75
2022-08-16T15:22:59.042Z,21.50
2022-08-16T15:25:29.616Z,21.25
2022-08-16T15:27:57.380Z,21.45
2022-08-16T15:30:57.925Z,24.20
2022-08-16T15:33:15.381Z,32.67
2022-08-16T15:35:44.998Z,22.63
2022-08-16T15:38:57.353Z,27.08
2022-08-16T15:41:01.535Z,23.50
2022-08-16T15:43:39.483Z,26.85
2022-08-16T15:46:35.183Z,25.05
2022-08-16T15:49:10.244Z,27.00
2022-08-16T15:51:41.394Z,31.80
2022-08-16T15:54:21.314Z,29.38
2022-08-16T15:57:00.340Z,27.38
2022-08-16T15:59:48.051Z,32.67
2022-08-16T16:02:16.791Z,27.88
2022-08-16T16:04:51.583Z,24.85
2022-08-16T16:07:22.198Z,23.90
2022-08-16T16:09:49.124Z,30.60
2022-08-16T16:12:50.566Z,28.20
2022-08-16T16:15:07.395Z,25.42
2022-08-16T16:30:33.114Z,23.33
2022-08-16T16:33:22.252Z,21.38
2022-08-16T16:35:56.607Z,24.45
2022-08-16T16:38:28.864Z,22.83
2022-08-16T16:40:56.233Z,21.27
2022-08-16T16:43:25.989Z,21.42
2022-08-16T16:46:01.691Z,20.33
2022-08-16T16:48:35.075Z,22.35
2022-08-16T16:53:55.736Z,25.80
2022-08-16T16:56:27.536Z,24.67
2022-08-16T16:59:01.709Z,27.83
2022-08-16T17:01:56.659Z,31.08
2022-08-16T17:04:27.329Z,24.17
2022-08-16T17:06:59.165Z,25.48
2022-08-16T17:09:26.282Z,27.02
2022-08-16T17:11:55.377Z,26.42
2022-08-16T17:14:33.743Z,26.08
2022-08-16T17:17:05.102Z,21.65
2022-08-16T17:19:32.160Z,21.17
2022-08-16T17:21:59.427Z,26.38
2022-08-16T17:24:39.502Z,26.35
2022-08-16T17:27:07.949Z,26.33
2022-08-16T17:33:59.711Z,26.63
